Skip to main content

NOAA/GLERL Met Station at Muskegon, MI

Previous 5 days (top of hour only)
See also Previous 3 Hours (2 minute increments)
Jump down to Data
Switch to [English][Metric]
Zoom: Click and drag, Pan: shift-click and drag, Unzoom: double-click, Unzoom All






Note: Speed = mean wind during 2-minute period at top of hour,
Gust = max wind during 2-minute period at top of hour,
Peak = max wind during entire hour.
• See also 5-day windrose plot


NOAA/GLERL Met Station at Muskegon, MI

Previous 5 days (top of hour only)
See also Previous 3 Hours (2 minute increments)
Jump up to Graphs
Switch to [English][Metric]
                  Wind  Wind  Wind   Air   Dew   Rel     Sta   PAR
                   Spd   Gst   Dir  Temp    Pt   Hum    Pres uE/m2/
YYYY-MM-DD   EDT   kts   kts   deg     F     F     %   in Hg   sec
2018-10-21 16:00  14.6  16.1   258  42.1  33.6  71.5   29.56   858
2018-10-21 15:00  13.8  15.9   249  41.4  32.6  70.8   29.59   815
2018-10-21 14:00  11.3  12.2   267  40.8  31.4  68.7   29.62  1781
2018-10-21 13:00  11.5  14.8   255  39.7  29.7  67.1   29.65  1028
2018-10-21 12:00  11.3  12.6   280  39.7  30.0  67.8   29.67   705
2018-10-21 11:00  10.3  12.2   289  39.7  29.8  67.3   29.68   412
2018-10-21 10:00   4.7   6.6   268  39.4  27.9  63.1   29.68   397
2018-10-21 09:00  10.1  11.7   310  39.6  29.5  67.0   29.67   101
2018-10-21 08:00  10.3  11.7   315  39.4  29.6  67.8   29.67     3
2018-10-21 07:00   7.8  11.3   344  39.2  28.5  65.2   29.66     2
2018-10-21 06:00   5.8   9.3   355  39.4  28.9  65.8   29.66     2
2018-10-21 05:00   6.6   8.7    29  37.8  27.1  65.2   29.64     2
2018-10-21 04:00   8.7  11.5    25  37.8  26.5  63.4   29.64     2
2018-10-21 03:00   9.9  11.7    22  37.8  26.2  62.8   29.63     2
2018-10-21 02:00   7.8  10.3    23  37.6  26.2  63.2   29.62     2
2018-10-21 01:00  12.1  17.7    24  37.4  25.7  62.2   29.61     2
2018-10-21 00:00  15.4  19.1    15  37.4  25.1  60.7   29.60     2
2018-10-20 23:00  12.2  19.2    12  37.2  25.2  61.5   29.58     2
2018-10-20 22:00  16.9  21.2    14  37.0  24.2  59.4   29.55     2
2018-10-20 21:00  16.3  21.4    12  38.1  27.0  63.8   29.53     2
2018-10-20 20:00  17.5  22.0    13  38.3  25.2  58.8   29.49     2
2018-10-20 19:00  13.4  20.6    27  37.6  28.9  70.7   29.43     8
2018-10-20 18:00  20.4  28.6    20  38.3  30.5  73.2   29.38   163
2018-10-20 17:00  12.6  17.5    20  37.4  36.1  95.1   29.31   221
2018-10-20 16:00  11.5  15.2    17  36.9  35.9  96.1   29.23   171
2018-10-20 15:00  25.9  33.4     3  40.5  37.3  88.4   29.16   159
2018-10-20 14:00  34.6  38.9   340  43.9  39.3  83.7   29.13   336
2018-10-20 13:00  32.1  40.4   313  45.3  39.0  78.3   29.11    96
2018-10-20 12:00  23.7  28.0   334  48.6  38.8  68.7   29.11   641
2018-10-20 11:00  26.4  28.4   320  48.7  40.7  73.5   29.10   310
2018-10-20 10:00  15.6  17.3   297  50.2  39.0  65.0   29.10  1010
2018-10-20 09:00  17.9  20.0   320  49.8  35.6  57.7   29.12   912
2018-10-20 08:00  20.6  23.3   318  50.2  39.3  65.8   29.11    13
2018-10-20 07:00  21.2  23.1   327  51.4  40.9  66.9   29.12     2
2018-10-20 06:00  20.0  21.6   321  52.3  41.7  66.7   29.12     2
2018-10-20 05:00  21.6  23.9   324  53.2  41.8  64.7   29.13     2
2018-10-20 04:00  23.9  26.6   326  53.8  43.3  67.2   29.13     2
2018-10-20 03:00  20.8  23.9   319  54.9  45.0  69.1   29.12     2
2018-10-20 02:00  17.9  20.8   307  54.7  49.2  81.4   29.12     2
2018-10-20 01:00  18.9  21.8   319  55.0  49.5  81.5   29.11     2
2018-10-20 00:00  25.1  28.2   320  55.6  49.7  80.4   29.12     2
2018-10-19 23:00  24.9  27.8   282  54.9  52.5  91.8   29.10     2
2018-10-19 22:00  29.4  31.9   273  54.3  52.0  91.8   29.08     2
2018-10-19 21:00  25.1  28.6   265  54.0  51.9  92.6   29.10     2
2018-10-19 20:00  28.4  31.5   259  53.6  50.7  89.8   29.11     2
2018-10-19 19:00  30.5  33.0   244  53.6  48.7  83.4   29.12     3
2018-10-19 18:00  27.8  32.3   236  53.4  47.0  78.5   29.12    32
2018-10-19 17:00  28.8  32.9   227  52.9  47.4  81.3   29.15   107
2018-10-19 16:00  29.5  32.3   226  52.0  47.1  83.2   29.19   121
2018-10-19 15:00  24.3  26.6   224  51.8  46.5  81.8   29.23   371
2018-10-19 14:00  27.6  29.7   236  52.9  43.7  70.8   29.28   220
2018-10-19 13:00  26.6  29.9   246  53.8  43.9  68.8   29.35   137
2018-10-19 12:00  25.1  30.1   247  54.1  45.4  71.9   29.37   185
2018-10-19 11:00  27.4  28.8   238  54.0  44.5  70.0   29.39   245
2018-10-19 10:00  21.2  23.9   242  54.3  46.6  74.9   29.41   204
2018-10-19 09:00  22.4  24.5   241  54.3  45.8  72.5   29.44   194
2018-10-19 08:00  20.0  21.8   250  54.5  46.2  73.2   29.45    10
2018-10-19 07:00  21.2  22.6   247  54.9  46.5  73.2   29.48     2
2018-10-19 06:00  15.9  17.3   246  54.7  46.6  73.9   29.50     2
2018-10-19 05:00  20.0  22.6   254  54.7  46.4  73.3   29.53     2
2018-10-19 04:00  21.4  23.7   258  54.7  45.5  70.8   29.54     2
2018-10-19 03:00  20.6  22.7   260  54.9  45.1  69.3   29.57     2
2018-10-19 02:00  20.2  24.7   258  55.2  45.5  69.4   29.58     2
2018-10-19 01:00  23.1  24.9   251  55.6  43.7  64.0   29.59     2
2018-10-19 00:00  19.8  22.0   249  55.8  43.6  63.2   29.61     2
2018-10-18 23:00  18.1  19.6   251  55.6  43.6  63.7   29.63     2
2018-10-18 22:00  22.9  24.7   251  55.6  41.4  58.5   29.64     2
2018-10-18 21:00  20.8  22.4   235  54.3  42.1  62.9   29.65     2
2018-10-18 20:00  19.8  21.8   231  53.4  39.7  59.3   29.66     2
2018-10-18 19:00  18.7  21.2   234  52.7  39.8  61.1   29.68    25
2018-10-18 18:00  17.7  19.8   233  52.0  36.1  54.3   29.70  1039
2018-10-18 17:00  15.7  17.5   244  51.3  35.3  54.0   29.73  1536
2018-10-18 16:00  16.5  18.1   245  50.5  33.5  51.6   29.76   745
2018-10-18 15:00  15.6  17.5   259  49.5  36.6  60.8   29.78  1823
2018-10-18 14:00  16.1  17.9   223  48.9  39.3  69.2   29.81  1982
2018-10-18 13:00  14.6  15.9   223  48.0  38.5  69.4   29.84   843
2018-10-18 12:00  12.6  15.6   232  46.9  37.6  69.7   29.86  1744
2018-10-18 11:00  10.5  12.2   238  45.7  36.5  70.0   29.87   597
2018-10-18 10:00   8.4  10.5   192  42.6  30.6  62.0   29.87  1435
2018-10-18 09:00   6.4   8.0   167  39.4  24.0  53.7   29.86   973
2018-10-18 08:00   7.8   8.4   176  35.4  24.1  63.0   29.86    18
2018-10-18 07:00   3.9   5.1   150  34.3  24.9  68.2   29.86     2
2018-10-18 06:00   6.6   7.6   109  36.1  27.9  71.7   29.85     2
2018-10-18 05:00   5.6   6.6   113  36.5  28.8  73.3   29.84     2
2018-10-18 04:00   7.0   8.4    93  36.1  30.4  79.5   29.84     2
2018-10-18 03:00   6.4   7.2    88  36.7  28.7  72.5   29.84     2
2018-10-18 02:00   6.2   7.2    72  36.9  27.7  69.1   29.82     2
2018-10-18 01:00   8.2   9.7    58  38.7  25.7  59.4   29.80     2
2018-10-18 00:00   8.6   8.9    51  40.1  25.7  56.0   29.80     2
2018-10-17 23:00   8.4  10.1    33  41.0  25.7  54.2   29.77     2
2018-10-17 22:00   8.0  10.7    29  41.5  25.9  53.5   29.76     2
2018-10-17 21:00   7.8  10.1    27  41.7  27.5  56.6   29.75     2
2018-10-17 20:00   9.3  11.7    33  42.6  27.3  54.3   29.71     2
2018-10-17 19:00  12.4  15.4    22  46.0  28.6  50.3   29.68    18
2018-10-17 18:00  21.2  23.1   319  46.8  30.4  52.5   29.67   232
2018-10-17 17:00  22.2  24.3   331  46.2  29.9  52.6   29.67  1128
2018-10-17 16:00  17.5  22.4   334  45.5  28.9  51.9   29.64   604
2018-10-17 15:00  19.8  23.3   338  44.1  27.6  52.1   29.64  1454
2018-10-17 14:00  16.9  18.7   333  43.7  29.4  56.7   29.63   675
2018-10-17 13:00  17.9  23.3   348  43.5  28.9  56.1   29.61   797
2018-10-17 12:00  21.4  23.3   333  43.7  30.3  58.9   29.58   815
2018-10-17 11:00  26.4  29.4   338  43.9  32.3  63.4   29.56   424
2018-10-17 10:00  24.7  27.6   339  44.2  31.6  60.9   29.53   234
2018-10-17 09:00  25.9  29.4   345  44.4  33.9  66.2   29.49   129
2018-10-17 08:00   8.6  12.1    17  43.9  33.0  65.3   29.44     3
2018-10-17 07:00   8.0  10.7    29  44.4  35.1  69.4   29.42     2
2018-10-17 06:00   8.6  10.3    27  44.8  35.5  69.6   29.39     2
2018-10-17 05:00   3.7   4.7    49  44.8  34.4  66.5   29.38     2
2018-10-17 04:00   4.7   5.6    40  44.1  35.1  70.4   29.37     2
2018-10-17 03:00   8.6   9.9    48  46.0  34.8  64.5   29.36     2
2018-10-17 02:00  10.5  12.1    14  50.4  37.0  59.8   29.34     2
2018-10-17 01:00  21.6  23.9   322  53.6  39.0  57.4   29.33     2
2018-10-17 00:00  23.1  25.7   314  55.2  40.4  57.1   29.33     2
2018-10-16 23:00  22.6  25.5   292  55.6  42.5  61.0   29.32     2
2018-10-16 22:00  19.8  23.3   295  55.6  43.1  62.4   29.32     2
2018-10-16 21:00  24.1  26.0   295  55.6  42.4  60.8   29.32     2
2018-10-16 20:00  22.4  24.7   288  55.6  42.8  61.8   29.31     2